Time;durP1;ratioP1;P1;durP2;ratioP2;P2;SDS_P1;SDS_P2;PMS_P1;PMS_P2;Temp;Humidity;BMP_temperature;BMP_pressure;BME280_temperature;BME280_humidity;BME280_pressure;Samples;Min_cycle;Max_cycle;Signal;HPM_P1;HPM_P2
2022/09/16 00:00:03;;;;;;;7.05;1.70;;;;;;;13.69;100.00;101027.03;5276433;28;20030;-69
2022/09/16 00:02:34;;;;;;;8.35;1.90;;;;;;;13.68;100.00;101025.38;5275830;28;20033;-69
2022/09/16 00:05:06;;;;;;;4.45;2.20;;;;;;;13.69;100.00;101030.47;5276370;28;20175;-69
2022/09/16 00:07:37;;;;;;;7.53;2.00;;;;;;;13.72;100.00;101027.56;5274540;28;20059;-69
2022/09/16 00:10:09;;;;;;;6.20;1.90;;;;;;;13.71;100.00;101028.50;5275927;28;20116;-69
2022/09/16 00:12:40;;;;;;;5.03;1.75;;;;;;;13.72;100.00;101027.56;5276881;28;20041;-69
2022/09/16 00:15:11;;;;;;;6.35;1.80;;;;;;;13.67;100.00;101019.25;5275164;28;20154;-69
2022/09/16 00:17:43;;;;;;;6.47;2.00;;;;;;;13.73;100.00;101028.38;5276131;28;20025;-69
2022/09/16 00:20:14;;;;;;;6.38;1.90;;;;;;;13.76;100.00;101020.19;5275746;28;20020;-69
2022/09/16 00:22:45;;;;;;;3.45;1.80;;;;;;;13.74;100.00;101011.59;5276188;28;20060;-69
2022/09/16 00:25:17;;;;;;;6.97;2.00;;;;;;;13.78;100.00;101018.22;5276427;28;20031;-69
2022/09/16 00:27:48;;;;;;;5.63;1.63;;;;;;;13.74;100.00;101028.22;5276532;28;20389;-69
2022/09/16 00:30:19;;;;;;;6.35;1.85;;;;;;;13.75;100.00;101026.41;5275898;28;20485;-69
2022/09/16 00:32:51;;;;;;;8.68;1.90;;;;;;;13.72;100.00;101018.84;5276395;28;20029;-69
2022/09/16 00:35:23;;;;;;;5.43;1.65;;;;;;;13.66;100.00;101028.13;5274959;28;20028;-69
2022/09/16 00:37:54;;;;;;;8.95;2.03;;;;;;;13.61;100.00;101020.69;5264134;28;20034;-69
2022/09/16 00:40:25;;;;;;;8.35;2.28;;;;;;;13.58;100.00;101005.16;5276054;28;20024;-69
2022/09/16 00:42:59;;;;;;;5.32;2.00;;;;;;;13.55;100.00;101020.41;5276065;28;20029;-69
2022/09/16 00:45:30;;;;;;;6.38;2.00;;;;;;;13.47;100.00;101017.69;5269984;28;20118;-69
2022/09/16 00:48:06;;;;;;;4.78;1.70;;;;;;;13.49;100.00;101005.22;5276079;28;20115;-69
2022/09/16 00:50:47;;;;;;;7.50;2.30;;;;;;;13.53;100.00;101004.78;5276070;28;20111;-69
2022/09/16 00:53:25;;;;;;;6.32;2.17;;;;;;;13.46;100.00;101005.50;5274074;28;20024;-69
2022/09/16 00:56:01;;;;;;;6.90;2.17;;;;;;;13.32;100.00;101007.63;5276287;28;20438;-69
2022/09/16 00:58:40;;;;;;;6.60;1.90;;;;;;;13.26;100.00;101005.59;5275917;28;20028;-69
2022/09/16 01:01:11;;;;;;;7.05;2.05;;;;;;;13.21;100.00;101001.69;5276504;28;20064;-69
2022/09/16 01:03:52;;;;;;;6.90;2.05;;;;;;;13.29;100.00;101007.91;5280205;28;20097;-69
2022/09/16 01:06:26;;;;;;;4.47;1.60;;;;;;;13.11;100.00;100996.47;5278009;28;20144;-69
2022/09/16 01:08:57;;;;;;;5.07;1.88;;;;;;;13.09;100.00;101001.84;5278455;28;20063;-69
2022/09/16 01:11:29;;;;;;;6.30;2.10;;;;;;;13.02;100.00;100997.28;5279288;28;20028;-69
2022/09/16 01:17:24;;;;;;;6.57;2.20;;;;;;;13.12;100.00;100998.09;5279704;28;20405;-69
2022/09/16 01:20:14;;;;;;;6.57;2.30;;;;;;;13.14;100.00;100999.63;5279690;28;20039;-69
2022/09/16 01:23:27;;;;;;;5.50;1.70;;;;;;;13.10;100.00;101005.31;5279001;28;20024;-69
2022/09/16 01:26:23;;;;;;;3.63;1.70;;;;;;;13.12;100.00;101003.38;5269729;28;20051;-69
2022/09/16 01:29:22;;;;;;;9.60;2.33;;;;;;;12.97;100.00;101003.00;5279395;28;20115;-69
2022/09/16 01:32:17;;;;;;;4.10;1.73;;;;;;;12.94;100.00;101011.16;5278432;28;20036;-69
2022/09/16 01:35:04;;;;;;;6.30;2.10;;;;;;;12.74;100.00;101009.53;5279203;28;20027;-69
2022/09/16 01:37:52;;;;;;;6.10;1.98;;;;;;;12.87;100.00;100996.91;5279426;28;20404;-69
2022/09/16 01:41:01;;;;;;;7.88;2.40;;;;;;;12.96;100.00;100998.72;5278170;28;20036;-69
2022/09/16 01:43:57;;;;;;;7.30;2.03;;;;;;;12.95;100.00;100996.19;5278218;28;20477;-69
2022/09/16 01:46:48;;;;;;;7.25;2.15;;;;;;;12.87;100.00;100992.47;5279488;28;20047;-69
2022/09/16 01:49:27;;;;;;;5.40;2.13;;;;;;;12.66;100.00;100999.72;5278218;28;20039;-69
2022/09/16 01:52:18;;;;;;;8.68;2.10;;;;;;;12.74;100.00;100989.34;5279043;28;20094;-69
2022/09/16 01:55:00;;;;;;;5.70;2.00;;;;;;;12.66;100.00;100992.66;5279028;28;20032;-69
2022/09/16 01:57:39;;;;;;;7.57;2.60;;;;;;;12.57;100.00;100992.66;5278700;28;20028;-69
2022/09/16 02:00:13;;;;;;;7.35;2.20;;;;;;;12.38;100.00;100998.75;5276527;28;20055;-69
2022/09/16 02:02:52;;;;;;;9.00;2.40;;;;;;;12.42;100.00;101008.00;5278603;28;20119;-69
2022/09/16 02:05:34;;;;;;;8.15;2.13;;;;;;;12.52;100.00;101006.22;5277146;28;20040;-69
2022/09/16 02:08:11;;;;;;;7.30;2.30;;;;;;;12.45;100.00;101013.00;5276758;28;20056;-69
2022/09/16 02:10:45;;;;;;;7.45;2.38;;;;;;;12.33;100.00;101001.78;5278729;28;20275;-69
2022/09/16 02:13:23;;;;;;;5.57;2.10;;;;;;;12.41;100.00;101009.81;5278391;28;20797;-69
2022/09/16 02:16:00;;;;;;;6.00;2.00;;;;;;;12.42;100.00;101015.88;5277292;28;20032;-69
2022/09/16 02:18:35;;;;;;;6.55;2.28;;;;;;;12.44;100.00;101006.09;5278513;28;20048;-69
2022/09/16 02:21:13;;;;;;;5.68;2.10;;;;;;;12.54;100.00;101009.56;5278102;28;20028;-69
2022/09/16 02:23:49;;;;;;;6.18;1.70;;;;;;;12.46;100.00;101005.94;5278017;28;20036;-69
2022/09/16 02:26:28;;;;;;;6.00;1.98;;;;;;;12.58;100.00;101010.09;5278347;28;20103;-69
2022/09/16 02:29:04;;;;;;;6.70;2.40;;;;;;;12.50;100.00;101010.78;5277926;28;20024;-69
2022/09/16 02:31:38;;;;;;;7.07;2.22;;;;;;;12.55;100.00;101007.75;5277120;28;20024;-69
2022/09/16 02:34:16;;;;;;;5.38;1.85;;;;;;;12.67;100.00;101001.38;5277075;28;20039;-69
2022/09/16 02:36:52;;;;;;;5.55;2.00;;;;;;;12.64;100.00;101012.97;5278312;28;20170;-69
2022/09/16 02:39:28;;;;;;;7.05;1.75;;;;;;;12.69;100.00;101009.09;5277708;28;20818;-69
2022/09/16 02:42:00;;;;;;;5.25;1.98;;;;;;;12.60;100.00;101003.72;5277646;28;20037;-69
2022/09/16 02:44:33;;;;;;;6.60;2.20;;;;;;;12.61;100.00;101004.53;5277638;28;20417;-69
2022/09/16 02:47:14;;;;;;;11.70;2.65;;;;;;;12.75;100.00;101011.19;5277841;28;20012;-69
2022/09/16 02:49:55;;;;;;;6.65;1.75;;;;;;;12.75;100.00;101008.56;5276841;28;20040;-68
2022/09/16 02:52:36;;;;;;;4.15;1.90;;;;;;;12.61;100.00;101008.03;5276975;28;20477;-69
2022/09/16 02:55:18;;;;;;;5.45;2.25;;;;;;;12.64;100.00;101009.53;5277745;28;20032;-69
2022/09/16 02:57:50;;;;;;;4.83;2.10;;;;;;;12.63;100.00;101002.63;5277843;28;20066;-69
2022/09/16 03:00:21;;;;;;;8.55;2.22;;;;;;;12.63;100.00;101008.69;5276823;28;20775;-69
2022/09/16 03:02:53;;;;;;;7.85;2.53;;;;;;;12.62;100.00;101006.22;5277841;28;20082;-69
2022/09/16 03:05:28;;;;;;;5.38;1.70;;;;;;;12.66;100.00;101002.34;5277076;28;20044;-69
2022/09/16 03:08:02;;;;;;;4.03;1.50;;;;;;;12.55;100.00;101003.31;5278329;28;20041;-69
2022/09/16 03:10:41;;;;;;;10.70;2.15;;;;;;;12.70;100.00;101005.53;5282925;28;20020;-68
2022/09/16 03:13:46;;;;;;;6.95;2.38;;;;;;;12.95;100.00;100999.66;5286636;28;20062;-69
2022/09/16 03:16:32;;;;;;;7.25;1.83;;;;;;;12.78;100.00;101001.22;5286480;28;20438;-69
2022/09/16 03:19:19;;;;;;;7.88;2.05;;;;;;;12.70;100.00;100993.22;5291379;28;20033;-69
2022/09/16 03:22:18;;;;;;;7.82;2.20;;;;;;;12.81;100.00;100997.50;5285084;28;20032;-69
2022/09/16 03:24:58;;;;;;;6.45;1.77;;;;;;;12.74;100.00;100997.22;5264363;28;20064;-69
2022/09/16 03:27:45;;;;;;;5.75;1.90;;;;;;;12.94;100.00;100994.56;5284633;28;20020;-69
2022/09/16 03:30:16;;;;;;;5.38;1.70;;;;;;;12.76;100.00;100991.81;5284286;28;20052;-69
2022/09/16 03:32:57;;;;;;;3.90;1.83;;;;;;;12.78;100.00;100997.78;5282385;28;20066;-69
2022/09/16 03:35:42;;;;;;;5.18;1.67;;;;;;;12.86;100.00;100990.81;5283287;28;20032;-69
2022/09/16 03:38:16;;;;;;;6.70;2.15;;;;;;;12.73;100.00;100992.09;5283754;28;20035;-69
2022/09/16 03:40:47;;;;;;;5.32;1.50;;;;;;;12.69;100.00;100993.34;5282185;28;20117;-69
2022/09/16 03:43:19;;;;;;;8.95;2.05;;;;;;;12.64;100.00;100993.75;5283602;28;20473;-69
2022/09/16 03:45:50;;;;;;;10.25;2.30;;;;;;;12.63;100.00;100995.56;5285970;28;20437;-69
2022/09/16 03:48:22;;;;;;;6.43;2.20;;;;;;;12.62;100.00;100990.47;5281355;28;20020;-69
2022/09/16 03:50:53;;;;;;;9.30;2.00;;;;;;;12.64;100.00;100994.59;5286606;28;20032;-69
2022/09/16 03:53:24;;;;;;;6.55;1.75;;;;;;;12.54;100.00;100996.41;5282730;28;20031;-69
2022/09/16 03:55:55;;;;;;;5.80;1.70;;;;;;;12.61;100.00;100994.03;5283479;28;20062;-69
2022/09/16 03:58:27;;;;;;;6.93;1.80;;;;;;;12.62;100.00;100995.72;5277902;28;20032;-69
2022/09/16 04:00:58;;;;;;;7.65;1.70;;;;;;;12.60;100.00;100990.56;5265117;28;20024;-69
2022/09/16 04:03:30;;;;;;;5.68;1.92;;;;;;;12.60;100.00;100995.00;5288638;28;20025;-69
2022/09/16 04:06:02;;;;;;;4.83;1.40;;;;;;;12.62;100.00;100990.47;5285187;28;20012;-69
2022/09/16 04:08:34;;;;;;;6.25;1.90;;;;;;;12.61;100.00;101004.53;5276362;28;20049;-69
2022/09/16 04:11:05;;;;;;;5.72;1.58;;;;;;;12.52;100.00;100977.31;5258608;28;20102;-69
2022/09/16 04:13:37;;;;;;;6.15;1.75;;;;;;;12.58;100.00;100994.34;5267369;28;20104;-69
2022/09/16 04:16:08;;;;;;;5.72;1.85;;;;;;;12.60;100.00;100992.38;5260228;28;20053;-69
2022/09/16 04:18:39;;;;;;;5.55;2.00;;;;;;;12.59;100.00;100988.94;5264584;28;20029;-69
2022/09/16 04:21:10;;;;;;;9.25;1.83;;;;;;;12.65;100.00;101003.28;5259853;28;20508;-69
2022/09/16 04:23:42;;;;;;;4.72;2.10;;;;;;;12.63;100.00;100998.19;5261023;28;20551;-69
2022/09/16 04:26:13;;;;;;;5.72;1.63;;;;;;;12.64;100.00;100999.84;5266265;28;20385;-69
2022/09/16 04:28:45;;;;;;;3.60;1.40;;;;;;;12.68;100.00;101003.03;5262577;28;20123;-69
2022/09/16 04:31:16;;;;;;;6.20;1.70;;;;;;;12.67;100.00;101004.00;5260011;28;20028;-69
2022/09/16 04:33:48;;;;;;;6.40;1.83;;;;;;;12.70;100.00;101000.28;5263415;28;20490;-69
2022/09/16 04:36:20;;;;;;;8.00;1.73;;;;;;;12.69;100.00;101023.09;5261084;28;20390;-69
2022/09/16 04:38:51;;;;;;;8.02;1.80;;;;;;;12.70;100.00;101016.88;5265229;28;20134;-69
2022/09/16 04:41:25;;;;;;;4.05;1.75;;;;;;;12.74;100.00;101005.09;5264070;28;20024;-69
2022/09/16 04:43:58;;;;;;;7.80;1.40;;;;;;;12.76;100.00;101008.41;5264568;28;20107;-69
2022/09/16 04:46:31;;;;;;;6.85;1.50;;;;;;;12.76;100.00;101005.78;5267862;28;20165;-69
2022/09/16 04:49:02;;;;;;;6.00;1.50;;;;;;;12.79;100.00;100999.41;5265556;28;20119;-69
2022/09/16 04:51:34;;;;;;;8.50;1.70;;;;;;;12.82;100.00;100986.81;5267572;28;20436;-69
2022/09/16 04:54:05;;;;;;;5.30;1.13;;;;;;;12.80;100.00;100983.50;5242984;28;20052;-69
2022/09/16 04:56:36;;;;;;;5.97;1.13;;;;;;;12.81;100.00;100979.91;5270450;28;20517;-69
2022/09/16 04:59:09;;;;;;;5.10;1.00;;;;;;;12.79;100.00;100991.53;5262539;28;20033;-69
2022/09/16 05:01:40;;;;;;;7.03;1.00;;;;;;;12.81;100.00;100986.97;5262350;28;20036;-69
2022/09/16 05:04:11;;;;;;;4.75;1.30;;;;;;;12.81;100.00;100995.69;5266857;28;20474;-69
2022/09/16 05:06:43;;;;;;;2.65;0.93;;;;;;;12.77;100.00;100990.84;5264625;28;20025;-69
2022/09/16 05:09:14;;;;;;;5.03;1.10;;;;;;;12.74;100.00;100997.22;5262043;28;20040;-70
2022/09/16 05:11:46;;;;;;;4.75;1.42;;;;;;;12.72;100.00;100991.25;5285081;28;20028;-70
2022/09/16 05:14:17;;;;;;;4.97;1.30;;;;;;;12.72;100.00;101003.56;5287798;28;20025;-69
2022/09/16 05:16:48;;;;;;;6.30;1.20;;;;;;;12.73;100.00;101002.59;5286107;28;20047;-70
2022/09/16 05:19:20;;;;;;;3.72;1.00;;;;;;;12.71;100.00;101001.91;5269149;28;20028;-69
2022/09/16 05:21:52;;;;;;;4.72;1.10;;;;;;;12.71;100.00;101004.56;5287377;28;20032;-69
2022/09/16 05:24:23;;;;;;;3.83;1.08;;;;;;;12.78;100.00;101005.66;5287156;28;20026;-69
2022/09/16 05:26:54;;;;;;;5.15;1.73;;;;;;;12.80;100.00;101006.31;5285104;28;20021;-70
2022/09/16 05:29:26;;;;;;;2.38;1.15;;;;;;;12.79;100.00;101009.94;5281622;28;20046;-70
2022/09/16 05:31:57;;;;;;;4.95;1.10;;;;;;;12.77;100.00;101007.47;5286151;28;20036;-70
2022/09/16 05:34:28;;;;;;;5.97;1.48;;;;;;;12.81;100.00;101010.63;5290567;28;20364;-70
2022/09/16 05:37:00;;;;;;;4.95;1.70;;;;;;;12.83;100.00;101016.56;5283297;28;20396;-70
2022/09/16 05:39:31;;;;;;;6.03;1.23;;;;;;;12.87;100.00;101012.69;5283789;28;20069;-70
2022/09/16 05:42:03;;;;;;;5.43;1.17;;;;;;;12.89;100.00;101005.50;5288704;28;20400;-69
2022/09/16 05:44:35;;;;;;;6.40;1.30;;;;;;;12.93;100.00;101016.56;5283456;28;20521;-70
2022/09/16 05:47:06;;;;;;;4.28;1.00;;;;;;;12.94;100.00;101005.91;5287932;28;20067;-70
2022/09/16 05:49:37;;;;;;;4.40;1.20;;;;;;;12.95;100.00;101017.25;5285680;28;20101;-70
2022/09/16 05:52:09;;;;;;;1.98;0.70;;;;;;;12.95;100.00;101004.09;5287202;28;20027;-70
2022/09/16 05:54:40;;;;;;;4.05;1.10;;;;;;;12.96;100.00;101013.66;5288746;28;20024;-70
2022/09/16 05:57:12;;;;;;;4.20;1.27;;;;;;;12.99;100.00;101008.91;5291377;28;20028;-70
2022/09/16 05:59:44;;;;;;;4.85;1.08;;;;;;;12.96;100.00;100995.25;5288633;28;20039;-69
2022/09/16 06:02:15;;;;;;;5.20;1.20;;;;;;;13.02;100.00;101007.81;5287465;28;20028;-69
2022/09/16 06:04:46;;;;;;;6.70;1.20;;;;;;;13.03;100.00;100999.81;5288790;28;20476;-69
2022/09/16 06:07:18;;;;;;;3.20;1.00;;;;;;;13.03;100.00;101010.31;5286369;28;20031;-70
2022/09/16 06:09:49;;;;;;;5.85;0.98;;;;;;;13.08;100.00;101007.25;5258849;28;20404;-69
2022/09/16 06:12:20;;;;;;;5.68;1.10;;;;;;;13.08;100.00;101015.97;5262463;28;21024;-69
2022/09/16 06:14:51;;;;;;;4.63;1.23;;;;;;;13.10;100.00;101013.19;5256288;28;20382;-70
2022/09/16 06:17:23;;;;;;;4.20;1.05;;;;;;;13.13;100.00;101012.91;5248399;28;20415;-70
2022/09/16 06:19:54;;;;;;;7.47;1.33;;;;;;;13.22;100.00;101016.47;5258393;28;20478;-69
2022/09/16 06:22:29;;;;;;;3.58;1.00;;;;;;;13.16;100.00;100999.47;5264927;28;20382;-70
2022/09/16 06:25:00;;;;;;;3.67;1.13;;;;;;;13.19;100.00;101017.63;5268043;28;20020;-69
2022/09/16 06:27:32;;;;;;;6.25;1.05;;;;;;;13.20;100.00;101021.06;5260667;28;20021;-70
2022/09/16 06:30:04;;;;;;;3.00;1.08;;;;;;;13.24;100.00;101028.56;5271237;28;20534;-70
2022/09/16 06:32:36;;;;;;;2.33;0.70;;;;;;;13.32;100.00;101023.41;5272222;28;20461;-70
2022/09/16 06:35:08;;;;;;;3.03;1.02;;;;;;;13.33;100.00;101025.09;5258105;28;20435;-70
2022/09/16 06:37:40;;;;;;;2.08;0.65;;;;;;;13.39;100.00;101026.31;5257281;28;20084;-70
2022/09/16 06:40:11;;;;;;;3.10;1.23;;;;;;;13.41;100.00;101031.41;5252541;28;20095;-70
2022/09/16 06:42:42;;;;;;;2.90;1.00;;;;;;;13.39;100.00;101032.38;5262118;28;20432;-70
2022/09/16 06:45:14;;;;;;;5.05;1.17;;;;;;;13.39;100.00;101031.56;5256927;28;20114;-70
2022/09/16 06:47:45;;;;;;;4.68;0.82;;;;;;;13.37;100.00;101030.88;5262166;28;20104;-70
2022/09/16 06:50:16;;;;;;;3.92;1.05;;;;;;;13.43;100.00;101040.00;5259456;28;20037;-70
2022/09/16 06:52:49;;;;;;;3.22;0.93;;;;;;;13.43;100.00;101043.47;5264466;28;20030;-69
2022/09/16 06:55:20;;;;;;;;;;;;;;;13.93;100.00;101039.63;5262025;28;20029;-70
2022/09/16 06:57:52;;;;;;;2.53;1.10;;;;;;;13.38;100.00;101038.63;5265461;28;19985;-69
2022/09/16 07:00:23;;;;;;;3.35;1.20;;;;;;;13.37;100.00;101031.72;5263476;28;20116;-70
2022/09/16 07:02:54;;;;;;;4.03;0.93;;;;;;;13.36;100.00;101037.94;5266552;28;20032;-69
2022/09/16 07:05:25;;;;;;;3.75;0.90;;;;;;;13.47;100.00;101042.19;5245822;28;20040;-70
2022/09/16 07:07:57;;;;;;;3.72;1.33;;;;;;;13.54;100.00;101042.47;5257430;28;20091;-70
2022/09/16 07:10:29;;;;;;;8.18;1.63;;;;;;;13.65;100.00;101033.56;5251221;28;20032;-70
2022/09/16 07:13:00;;;;;;;4.30;1.20;;;;;;;13.75;100.00;101036.94;5256165;28;20027;-70
2022/09/16 07:15:32;;;;;;;2.78;0.98;;;;;;;13.82;100.00;101035.38;5259309;28;20025;-69
2022/09/16 07:18:03;;;;;;;2.83;1.17;;;;;;;13.89;100.00;101028.56;5264570;28;20029;-70
2022/09/16 07:20:34;;;;;;;4.38;1.55;;;;;;;14.03;100.00;101032.53;5259747;28;20428;-69
2022/09/16 07:23:06;;;;;;;4.68;1.02;;;;;;;14.15;100.00;101035.78;5261190;28;20478;-70
2022/09/16 07:25:37;;;;;;;3.10;1.00;;;;;;;14.31;100.00;101044.66;5263067;28;20561;-70
2022/09/16 07:28:08;;;;;;;4.72;1.25;;;;;;;14.56;100.00;101040.50;5254530;28;20028;-70
2022/09/16 07:30:40;;;;;;;4.40;1.00;;;;;;;14.60;100.00;101054.19;5260379;28;20090;-70
2022/09/16 07:33:11;;;;;;;3.72;1.10;;;;;;;14.64;100.00;101060.81;5266109;28;20036;-70
2022/09/16 07:35:42;;;;;;;3.40;1.23;;;;;;;14.62;100.00;101054.88;5261624;28;20033;-70
2022/09/16 07:38:13;;;;;;;4.78;1.30;;;;;;;14.62;100.00;101048.75;5261858;28;20030;-70
2022/09/16 07:40:45;;;;;;;3.45;1.08;;;;;;;14.64;100.00;101050.28;5264452;28;20025;-70
2022/09/16 07:43:16;;;;;;;4.25;1.00;;;;;;;14.57;100.00;101055.31;5262280;28;20609;-70
2022/09/16 07:45:55;;;;;;;2.92;0.82;;;;;;;14.71;100.00;101064.53;5262063;28;20108;-70
2022/09/16 07:48:30;;;;;;;3.75;1.10;;;;;;;14.65;100.00;101067.75;5261570;28;20489;-70
2022/09/16 07:51:08;;;;;;;3.22;1.05;;;;;;;14.67;100.00;101065.81;5264147;28;20126;-70
2022/09/16 07:53:40;;;;;;;3.20;0.98;;;;;;;14.48;100.00;101050.13;5262793;28;20389;-71
2022/09/16 07:56:17;;;;;;;5.97;1.45;;;;;;;14.53;100.00;101050.50;5265335;28;20037;-69
2022/09/16 07:58:48;;;;;;;2.75;0.90;;;;;;;14.40;100.00;101064.03;5259836;28;20028;-69
2022/09/16 08:01:20;;;;;;;4.65;1.10;;;;;;;14.40;100.00;101068.50;5261990;28;20028;-70
2022/09/16 08:03:52;;;;;;;5.13;1.77;;;;;;;14.33;100.00;101073.53;5263763;28;20024;-70
2022/09/16 08:06:27;;;;;;;4.90;1.50;;;;;;;14.39;100.00;101074.72;5261363;28;20383;-70
2022/09/16 08:09:01;;;;;;;4.50;1.42;;;;;;;14.45;100.00;101074.97;5279826;28;20531;-70
2022/09/16 08:11:32;;;;;;;5.32;1.60;;;;;;;14.53;100.00;101075.06;5283772;28;20401;-69
2022/09/16 08:14:03;;;;;;;5.82;1.95;;;;;;;14.69;100.00;101073.56;5288669;28;20078;-70
2022/09/16 08:16:34;;;;;;;4.78;1.48;;;;;;;14.80;100.00;101070.69;5282856;28;20035;-69
2022/09/16 08:19:06;;;;;;;5.70;1.40;;;;;;;14.87;100.00;101069.09;5286114;28;20031;-70
2022/09/16 08:21:37;;;;;;;5.13;1.33;;;;;;;15.04;100.00;101075.34;5284736;28;20027;-70
2022/09/16 08:24:09;;;;;;;4.32;1.45;;;;;;;15.14;100.00;101057.59;5282362;28;20059;-70
2022/09/16 08:26:40;;;;;;;10.13;1.50;;;;;;;15.29;100.00;101078.97;5284597;28;20310;-70
2022/09/16 08:29:12;;;;;;;4.65;1.40;;;;;;;15.31;100.00;101075.19;5278039;28;20623;-70
2022/09/16 08:31:43;;;;;;;3.05;1.15;;;;;;;15.24;100.00;101079.44;5275623;28;20537;-69
2022/09/16 08:34:15;;;;;;;5.40;1.85;;;;;;;15.21;100.00;101082.38;5282280;28;20519;-70
2022/09/16 08:36:46;;;;;;;3.90;1.30;;;;;;;15.22;100.00;101083.22;5287731;28;20633;-69
2022/09/16 08:39:18;;;;;;;5.38;1.33;;;;;;;15.32;100.00;101083.94;5282177;28;20070;-70
2022/09/16 08:42:07;;;;;;;6.50;1.48;;;;;;;15.57;100.00;101084.94;5281809;28;20031;-70
2022/09/16 08:45:02;;;;;;;6.15;1.23;;;;;;;15.89;100.00;101080.81;5282647;28;20158;-70
2022/09/16 08:47:51;;;;;;;5.88;1.52;;;;;;;16.11;100.00;101072.31;5284839;28;20035;-70
2022/09/16 08:50:36;;;;;;;2.95;0.95;;;;;;;16.19;100.00;101074.16;5281026;28;20020;-70
2022/09/16 08:53:34;;;;;;;5.80;1.17;;;;;;;16.24;100.00;101072.66;5274400;28;20038;-70
2022/09/16 08:56:12;;;;;;;3.28;1.13;;;;;;;16.49;100.00;101076.19;5282145;28;20139;-70
2022/09/16 08:58:50;;;;;;;4.88;0.95;;;;;;;16.69;100.00;101078.53;5290896;28;20098;-70
2022/09/16 09:01:37;;;;;;;2.92;1.10;;;;;;;16.52;100.00;101085.63;5287497;28;20039;-70
2022/09/16 09:04:08;;;;;;;6.07;0.90;;;;;;;16.48;100.00;101076.38;5280679;28;20043;-70
2022/09/16 09:07:08;;;;;;;3.70;0.80;;;;;;;16.47;100.00;101082.63;5284321;28;20016;-70
2022/09/16 09:10:19;;;;;;;4.53;1.20;;;;;;;16.68;100.00;101084.81;5246722;28;20064;-70
2022/09/16 09:13:00;;;;;;;4.63;1.08;;;;;;;16.50;100.00;101080.50;5238311;28;20037;-70
2022/09/16 09:15:49;;;;;;;3.40;1.10;;;;;;;16.52;100.00;101085.63;5252610;28;20085;-70
2022/09/16 09:18:27;;;;;;;4.47;1.20;;;;;;;16.41;100.00;101085.94;5254478;28;20054;-70
2022/09/16 09:21:28;;;;;;;4.47;1.00;;;;;;;16.45;100.00;101082.81;5254068;28;20025;-70
2022/09/16 09:24:05;;;;;;;4.45;0.90;;;;;;;16.37;100.00;101088.06;5248722;28;20037;-70
2022/09/16 09:26:47;;;;;;;4.00;1.00;;;;;;;16.49;100.00;101086.78;5247018;28;20029;-71
2022/09/16 09:29:42;;;;;;;5.13;1.48;;;;;;;16.75;100.00;101086.69;5255143;28;20478;-70
2022/09/16 09:32:32;;;;;;;4.47;1.20;;;;;;;16.75;100.00;101085.84;5256979;28;20021;-70
2022/09/16 09:35:21;;;;;;;4.05;0.90;;;;;;;16.74;100.00;101089.47;5255320;28;20035;-70
2022/09/16 09:38:07;;;;;;;6.28;1.60;;;;;;;16.97;100.00;101085.19;5256579;28;20068;-70
2022/09/16 09:40:52;;;;;;;4.45;1.35;;;;;;;17.09;100.00;101075.09;5248845;28;20041;-70
2022/09/16 09:43:45;;;;;;;7.45;1.10;;;;;;;17.09;100.00;101083.03;5257947;28;20708;-70
2022/09/16 09:46:25;;;;;;;2.63;0.80;;;;;;;17.01;100.00;101075.94;5257279;28;20055;-70
2022/09/16 09:49:03;;;;;;;4.07;0.95;;;;;;;17.27;100.00;101085.47;5257447;28;20032;-70
2022/09/16 09:51:47;;;;;;;3.13;0.80;;;;;;;17.24;100.00;101078.72;5256831;28;20032;-70
2022/09/16 09:54:24;;;;;;;1.83;0.70;;;;;;;17.33;100.00;101073.41;5256920;28;20062;-70
2022/09/16 09:56:56;;;;;;;3.83;0.73;;;;;;;17.25;100.00;101080.34;5255203;28;20095;-70
2022/09/16 09:59:42;;;;;;;2.00;0.53;;;;;;;17.37;100.00;101075.53;5256162;28;20073;-70
2022/09/16 10:02:16;;;;;;;4.97;0.90;;;;;;;17.02;100.00;101084.69;5256440;28;20033;-70
2022/09/16 10:04:48;;;;;;;6.50;1.15;;;;;;;16.69;100.00;101097.88;5256796;28;20083;-70
2022/09/16 10:07:25;;;;;;;4.25;0.82;;;;;;;16.51;100.00;101118.34;5255607;28;20021;-71
2022/09/16 10:10:02;;;;;;;4.43;1.00;;;;;;;15.81;100.00;101122.06;5240947;28;20037;-70
2022/09/16 10:12:34;;;;;;;4.32;1.05;;;;;;;15.21;100.00;101129.91;5255090;28;20024;-71
2022/09/16 10:15:19;;;;;;;3.92;0.60;;;;;;;14.91;100.00;101114.47;5255126;28;20470;-71
2022/09/16 10:17:52;;;;;;;2.75;0.77;;;;;;;14.40;100.00;101115.94;5255009;28;20025;-71
2022/09/16 10:20:34;;;;;;;2.08;0.55;;;;;;;14.29;100.00;101109.06;5255934;28;20040;-71
2022/09/16 10:23:14;;;;;;;2.05;0.68;;;;;;;14.24;100.00;101095.47;5261709;28;20081;-71
2022/09/16 10:25:45;;;;;;;2.72;0.57;;;;;;;14.07;100.00;101095.28;5256926;28;20042;-71
2022/09/16 10:28:25;;;;;;;2.70;0.50;;;;;;;14.16;100.00;101093.56;5250450;28;20044;-71
2022/09/16 10:30:58;;;;;;;1.77;0.50;;;;;;;14.02;100.00;101092.28;5270143;28;20020;-71
2022/09/16 10:33:34;;;;;;;4.05;0.77;;;;;;;14.12;100.00;101098.31;5256021;28;20053;-71
2022/09/16 10:36:08;;;;;;;1.83;0.68;;;;;;;14.00;100.00;101096.84;5251899;28;20027;-72
2022/09/16 10:38:42;;;;;;;3.30;0.70;;;;;;;14.04;100.00;101097.41;5250929;28;20111;-72
2022/09/16 10:41:21;;;;;;;2.13;0.70;;;;;;;14.09;100.00;101096.00;5245647;28;20111;-72
2022/09/16 10:44:03;;;;;;;3.05;0.57;;;;;;;14.06;100.00;101098.09;5248121;28;20029;-72
2022/09/16 10:46:34;;;;;;;3.65;0.70;;;;;;;14.16;100.00;101104.13;5255926;28;20478;-72
2022/09/16 10:49:11;;;;;;;6.00;0.90;;;;;;;14.47;100.00;101101.16;5261101;28;20086;-72
2022/09/16 10:51:43;;;;;;;3.95;0.93;;;;;;;14.53;100.00;101101.44;5264292;28;20082;-72
2022/09/16 10:54:26;;;;;;;2.85;1.10;;;;;;;14.82;100.00;101090.66;5268591;28;20119;-72
2022/09/16 10:56:58;;;;;;;2.88;0.88;;;;;;;14.71;100.00;101090.91;5262209;28;20037;-72
2022/09/16 10:59:29;;;;;;;3.95;1.10;;;;;;;14.82;100.00;101088.03;5247390;28;20028;-72
2022/09/16 11:02:27;;;;;;;4.78;0.90;;;;;;;15.14;100.00;101093.72;5253341;28;20079;-72
2022/09/16 11:05:29;;;;;;;3.45;0.88;;;;;;;15.19;100.00;101096.72;5254265;28;20401;-72
2022/09/16 11:08:29;;;;;;;6.07;1.35;;;;;;;15.12;100.00;101093.88;5211637;28;20375;-72
2022/09/16 11:11:34;;;;;;;4.03;1.13;;;;;;;15.16;100.00;101092.59;5251404;28;20075;-72
2022/09/16 11:14:14;;;;;;;5.57;1.20;;;;;;;15.00;100.00;101103.84;5259012;28;20112;-72
2022/09/16 11:17:08;;;;;;;4.40;1.10;;;;;;;14.90;100.00;101094.34;5263751;28;20056;-72
2022/09/16 11:19:45;;;;;;;;;;;;;;;15.60;100.00;101100.44;5261179;28;20025;-72
2022/09/16 11:22:41;;;;;;;3.92;0.98;;;;;;;15.20;100.00;101098.38;5261859;28;19920;-72
2022/09/16 11:25:32;;;;;;;3.80;1.15;;;;;;;15.08;100.00;101084.63;5260544;28;20028;-72
2022/09/16 11:28:36;;;;;;;3.70;1.23;;;;;;;15.12;100.00;101096.50;5260742;28;20023;-72
2022/09/16 11:31:26;;;;;;;5.53;1.65;;;;;;;15.40;100.00;101094.56;5264487;28;20036;-72
2022/09/16 11:34:03;;;;;;;3.53;1.70;;;;;;;15.66;100.00;101096.41;5258175;28;20040;-72
2022/09/16 11:36:59;;;;;;;5.15;1.83;;;;;;;15.99;100.00;101097.38;5266180;28;20037;-72
2022/09/16 11:39:45;;;;;;;6.78;1.65;;;;;;;15.98;100.00;101098.34;5266887;28;20085;-72
2022/09/16 11:42:51;;;;;;;5.22;1.20;;;;;;;16.40;100.00;101100.13;5263487;28;20025;-72
2022/09/16 11:45:57;;;;;;;4.40;1.02;;;;;;;16.58;100.00;101105.28;5259028;28;20032;-72
2022/09/16 11:48:47;;;;;;;3.97;1.10;;;;;;;16.45;100.00;101105.78;5247143;28;20435;-72
2022/09/16 11:51:40;;;;;;;3.90;0.80;;;;;;;16.64;100.00;101109.94;5261715;28;20384;-72
2022/09/16 11:54:46;;;;;;;2.77;0.97;;;;;;;16.81;100.00;101106.34;5259181;28;20040;-72
2022/09/16 11:57:24;;;;;;;3.85;1.45;;;;;;;16.62;100.00;101117.22;5259058;28;20046;-72
2022/09/16 12:00:09;;;;;;;6.05;1.13;;;;;;;16.56;100.00;101112.59;5264957;28;20040;-72
2022/09/16 12:03:03;;;;;;;2.17;0.70;;;;;;;16.60;100.00;101119.19;5260534;28;20033;-72
2022/09/16 12:05:42;;;;;;;3.60;0.80;;;;;;;16.27;100.00;101106.72;5262601;28;20048;-72